M I D A S
Marine Information and Data Acquisition System
Tripno 1754 of the Zeeleeuw from 2009-08-25 07:03:36 to 2009-08-25 14:50:38
Back to CruiseResearch ActivitiesStationsMapUnderway DataData graphs

EquipmentUnitsComment
TimeDGPSUTC
LatitudeDGPSDM.mWGS84
LongitudeDGPSDM.mWGS84
HeadingGyrodeg 
SOGDGPSknotsSpeed over ground
COGDGPSdegCourse over ground
DepthEcho soundermeters200 kHz
Missing or incorrect values are displayed as -999
Navigation data collected by the RV Zeeleeuw from 2009-08-25 07:03:36 to 2009-08-25 14:50:38
Time Latitude Longitude Heading SOG COG Depth
2009-08-25 07:05:40 51°14.609 2°54.76 324.6 10.8 321 -999
2009-08-25 07:07:40 51°14.942 2°54.468 336 11.5 332 -999
2009-08-25 07:09:40 51°15.279 2°54.17 333.1 11.5 330 -999
2009-08-25 07:11:40 51°15.617 2°53.875 335.6 11.5 330 -999
2009-08-25 07:13:40 51°15.95 2°53.576 334.1 11.59 329 -999
2009-08-25 07:15:40 51°16.289 2°53.273 333.6 11.59 331 -999
2009-08-25 07:17:40 51°16.625 2°52.965 332.8 11.59 330 -999
2009-08-25 07:19:40 51°16.957 2°52.652 333.3 11.59 329 -999
2009-08-25 07:21:40 51°17.293 2°52.347 331.1 11.59 330 -999
2009-08-25 07:23:40 51°17.643 2°52.087 340.3 11.59 336 -999
2009-08-25 07:25:40 51°17.954 2°51.709 324.6 11.8 322 -999
2009-08-25 07:27:40 51°18.274 2°51.337 327.1 11.8 324 -999
2009-08-25 07:29:40 51°18.609 2°51.013 330.6 11.8 327 -999
2009-08-25 07:31:40 51°18.962 2°50.743 339 11.69 336 -999
2009-08-25 07:33:40 51°19.326 2°50.518 341.8 11.9 338 -999
2009-08-25 07:35:40 51°19.701 2°50.297 344 11.9 340 -999
2009-08-25 07:37:40 51°20.067 2°50.072 343.3 11.69 338 -999
2009-08-25 07:39:40 51°20.436 2°49.879 346.6 11.69 343 -999
2009-08-25 07:41:40 51°20.813 2°49.698 347.3 11.8 344 -999
2009-08-25 07:43:40 51°21.185 2°49.514 346.3 11.69 343 -999
2009-08-25 07:45:40 51°21.553 2°49.304 344.1 11.69 339 -999
2009-08-25 07:47:40 51°21.914 2°49.067 342.1 11.69 337 -999
2009-08-25 07:49:40 51°22.273 2°48.826 340.8 11.59 337 -999
2009-08-25 07:51:40 51°22.64 2°48.595 342.6 11.9 339 -999
2009-08-25 07:53:40 51°23.004 2°48.352 341.3 11.9 337 -999
2009-08-25 07:55:40 51°23.367 2°48.105 341.5 11.9 338 -999
2009-08-25 07:57:40 51°23.725 2°47.849 340.6 11.9 335 -999
2009-08-25 07:59:40 51°24.082 2°47.589 339.8 11.8 335 -999
2009-08-25 08:01:40 51°24.437 2°47.334 339.6 11.69 335 -999
2009-08-25 08:03:40 51°24.784 2°47.085 340.8 11.69 336 -999
2009-08-25 08:05:40 51°25.129 2°46.836 340.1 11.59 337 -999
2009-08-25 08:07:40 51°25.486 2°46.581 340.3 11.8 337 -999
2009-08-25 08:09:40 51°25.847 2°46.328 341 11.9 337 -999
2009-08-25 08:11:40 51°26.202 2°46.075 340.3 11.69 335 -999
2009-08-25 08:13:40 51°26.556 2°45.826 341.6 11.69 337 -999
2009-08-25 08:15:40 51°26.909 2°45.583 342.1 11.59 337 -999
2009-08-25 08:17:40 51°27.263 2°45.335 341.5 11.69 335 -999
2009-08-25 08:19:40 51°27.618 2°45.093 341.3 11.5 335 -999
2009-08-25 08:21:40 51°27.969 2°44.85 341.1 11.5 337 -999
2009-08-25 08:23:40 51°28.32 2°44.6 341.8 11.59 336 -999
2009-08-25 08:25:40 51°28.673 2°44.352 341.3 11.59 335 -999
2009-08-25 08:27:40 51°29.024 2°44.111 341 11.5 336 -999
2009-08-25 08:29:40 51°29.378 2°43.877 340.8 11.59 338 -999
2009-08-25 08:31:40 51°29.732 2°43.646 341.1 11.5 337 -999
2009-08-25 08:33:40 51°30.103 2°43.569 358.6 11.3 354 -999
2009-08-25 08:35:40 51°30.463 2°43.717 21.8 11.19 19 -999
2009-08-25 08:37:40 51°30.818 2°43.898 22.6 11.19 17 -999
2009-08-25 08:39:40 51°31.174 2°44.07 21 11.19 15 -999
2009-08-25 08:41:40 51°31.529 2°44.23 20 11.09 15 -999
2009-08-25 08:43:40 51°31.88 2°44.408 22.5 11 18 -999
2009-08-25 08:45:40 51°32.228 2°44.593 22.8 11.09 19 -999
2009-08-25 08:47:40 51°32.573 2°44.784 23.8 10.9 18 -999
2009-08-25 08:49:40 51°32.919 2°44.974 23.5 11 17 -999
2009-08-25 08:51:40 51°33.264 2°45.165 23.3 11 18 -999
2009-08-25 08:53:40 51°33.611 2°45.353 23.3 11 19 -999
2009-08-25 08:55:40 51°33.956 2°45.545 22 10.9 21 -999
2009-08-25 08:57:40 51°34.3 2°45.739 24.5 11 19 -999
2009-08-25 08:59:40 51°34.645 2°45.932 22.6 10.9 20 -999
2009-08-25 09:01:40 51°34.976 2°46.119 23.1 10.8 19 -999
2009-08-25 09:03:40 51°35.322 2°46.31 22.8 10.9 21 -999
2009-08-25 09:05:40 51°35.667 2°46.498 23 11 17 -999
2009-08-25 09:07:40 51°36.012 2°46.678 23.1 10.9 17 -999
2009-08-25 09:09:40 51°36.358 2°46.847 22.3 10.9 16 -999
2009-08-25 09:11:40 51°36.703 2°47.018 23.8 10.8 17 -999
2009-08-25 09:13:40 51°37.047 2°47.182 22.6 10.69 15 -999
2009-08-25 09:15:40 51°37.386 2°47.367 26.3 10.69 18 -999
2009-08-25 09:17:40 51°37.722 2°47.553 25.1 10.59 19 -999
2009-08-25 09:19:40 51°38.058 2°47.734 25.5 10.59 19 -999
2009-08-25 09:21:40 51°38.392 2°47.923 26.5 10.59 21 -999
2009-08-25 09:23:40 51°38.726 2°48.114 25.6 10.59 21 -999
2009-08-25 09:25:40 51°39.06 2°48.302 24.8 10.59 20 -999
2009-08-25 09:27:40 51°39.393 2°48.496 26.1 10.69 18 -999
2009-08-25 09:29:40 51°39.723 2°48.682 25.1 10.4 19 -999
2009-08-25 09:31:40 51°40.05 2°48.885 25.3 10.5 23 -999
2009-08-25 09:33:40 51°40.377 2°49.086 24.8 10.59 22 -999
2009-08-25 09:35:40 51°40.705 2°49.281 25.3 10.5 20 -999
2009-08-25 09:37:40 51°41.049 2°49.234 357.8 10.59 351 -999
2009-08-25 09:39:40 51°41.32 2°48.817 324.8 11.3 318 -999
2009-08-25 09:41:40 51°41.491 2°48.298 309.1 11.5 294 -999
2009-08-25 09:43:40 51°41.174 2°47.951 196.6 12.19 200 -999
2009-08-25 09:45:40 51°40.79 2°47.687 202.3 12.59 205 -999
2009-08-25 09:47:40 51°40.412 2°47.397 204.3 12.59 206 -999
2009-08-25 09:49:40 51°40.031 2°47.11 204 12.69 207 -999
2009-08-25 09:51:40 51°39.646 2°46.832 202.5 12.69 203 -999
2009-08-25 09:53:40 51°39.259 2°46.562 202.8 12.59 204 -999
2009-08-25 09:55:40 51°38.87 2°46.29 204.4 12.8 205 -999
2009-08-25 09:57:40 51°38.481 2°46.018 203.5 12.8 203 -999
2009-08-25 09:59:40 51°38.102 2°45.759 202.6 12.8 203 -999
2009-08-25 10:01:40 51°37.717 2°45.488 203.1 12.8 204 -999
2009-08-25 10:03:40 51°37.32 2°45.23 201.5 12.9 201 -999
2009-08-25 10:05:40 51°36.924 2°44.971 201 12.9 204 -999
2009-08-25 10:07:40 51°36.528 2°44.712 202 12.8 203 -999
2009-08-25 10:09:40 51°36.134 2°44.442 202 12.9 204 -999
2009-08-25 10:11:40 51°35.741 2°44.173 201 12.9 204 -999
2009-08-25 10:13:40 51°35.348 2°43.903 200.5 12.8 203 -999
2009-08-25 10:15:40 51°34.953 2°43.638 201.3 12.9 203 -999
2009-08-25 10:17:40 51°34.56 2°43.368 201.5 12.9 204 -999
2009-08-25 10:19:40 51°34.166 2°43.1 200.5 12.9 202 -999
2009-08-25 10:21:40 51°33.771 2°42.827 200.4 12.8 204 -999
2009-08-25 10:23:40 51°33.375 2°42.56 201 12.9 203 -999
2009-08-25 10:25:40 51°32.98 2°42.282 202.5 13 204 -999
2009-08-25 10:27:40 51°32.581 2°42.025 201.5 12.9 203 -999
2009-08-25 10:29:40 51°32.251 2°41.638 214 12.8 220 -999
2009-08-25 10:31:40 51°32.245 2°41.006 275.1 12.09 269 -999
2009-08-25 10:33:40 51°32.255 2°40.357 278.6 12.19 271 -999
2009-08-25 10:35:40 51°32.335 2°39.751 288.6 11.8 284 -999
2009-08-25 10:37:40 51°32.633 2°39.72 16.8 9.5 14 -999
2009-08-25 10:39:40 51°32.928 2°39.923 26.3 9.59 23 -999
2009-08-25 10:41:40 51°33.227 2°40.117 24.8 9.69 24 -999
2009-08-25 10:43:40 51°33.524 2°40.308 24.6 9.59 21 -999
2009-08-25 10:45:40 51°33.818 2°40.493 24 9.5 22 -999
2009-08-25 10:47:40 51°34.108 2°40.685 25.5 9.4 23 -999
2009-08-25 10:49:40 51°34.398 2°40.867 24.1 9.3 21 -999
2009-08-25 10:51:40 51°34.687 2°41.052 25 9.4 22 -999
2009-08-25 10:53:40 51°34.978 2°41.228 23.8 9.4 20 -999
2009-08-25 10:55:40 51°35.268 2°41.41 24.8 9.3 24 -999
2009-08-25 10:57:40 51°35.561 2°41.593 23.8 9.4 19 -999
2009-08-25 10:59:40 51°35.853 2°41.777 24 9.4 22 -999
2009-08-25 11:01:40 51°36.132 2°41.956 23 8.69 24 -999
2009-08-25 11:03:40 51°36.426 2°42.139 23.6 9.4 20 -999
2009-08-25 11:05:40 51°36.719 2°42.321 22.8 9.4 20 -999
2009-08-25 11:07:40 51°37.011 2°42.505 24.1 9.4 21 -999
2009-08-25 11:09:40 51°37.306 2°42.684 25.1 9.5 23 -999
2009-08-25 11:11:40 51°37.602 2°42.86 22.8 9.5 21 -999
2009-08-25 11:13:40 51°37.895 2°43.042 24.6 9.4 21 -999
2009-08-25 11:15:40 51°38.189 2°43.217 24.8 9.4 20 -999
2009-08-25 11:17:40 51°38.485 2°43.389 24 9.4 19 -999
2009-08-25 11:19:40 51°38.781 2°43.554 23.1 9.4 21 -999
2009-08-25 11:21:40 51°39.077 2°43.727 24.6 9.5 19 -999
2009-08-25 11:23:40 51°39.375 2°43.896 24.6 9.5 21 -999
2009-08-25 11:25:40 51°39.671 2°44.077 25.5 9.59 22 -999
2009-08-25 11:27:40 51°39.966 2°44.256 24.3 9.4 19 -999
2009-08-25 11:29:40 51°40.26 2°44.446 27 9.5 22 -999
2009-08-25 11:31:40 51°40.556 2°44.642 27.1 9.69 24 -999
2009-08-25 11:33:40 51°40.853 2°44.835 26.6 9.69 22 -999
2009-08-25 11:35:40 51°41.151 2°45.022 26.5 9.5 23 -999
2009-08-25 11:37:40 51°41.445 2°45.213 26.1 9.59 22 -999
2009-08-25 11:39:40 51°41.745 2°45.405 26.6 9.69 23 -999
2009-08-25 11:41:40 51°42.044 2°45.592 25.6 9.59 22 -999
2009-08-25 11:43:40 51°42.344 2°45.784 26.3 9.69 23 -999
2009-08-25 11:45:40 51°42.656 2°45.732 7 9.8 356 -999
2009-08-25 11:47:40 51°42.893 2°45.29 321 11.09 309 -999
2009-08-25 11:49:40 51°43.122 2°44.831 319.5 11 310 -999
2009-08-25 11:51:40 51°43.341 2°44.352 317 11.09 307 -999
2009-08-25 11:53:40 51°43.524 2°43.844 317.6 11.09 304 -999
2009-08-25 11:55:40 51°43.263 2°43.411 217.8 12.4 208 -999
2009-08-25 11:57:40 51°42.858 2°43.194 197.1 12.8 198 -999
2009-08-25 11:59:40 51°42.454 2°42.971 198.5 12.8 199 -999
2009-08-25 13:01:40 51°30.213 2°36.495 197.1 12.3 198 -999
2009-08-25 13:03:40 51°29.827 2°36.292 197.3 12.19 199 -999
2009-08-25 13:05:40 51°29.444 2°36.091 197.5 12.09 198 -999
2009-08-25 13:07:40 51°29.062 2°35.894 197 12 199 -999
2009-08-25 13:09:40 51°28.677 2°35.816 186.9 11.9 183 -999
2009-08-25 13:11:40 51°28.34 2°36.117 136.9 11.59 142 -999
2009-08-25 13:13:40 51°28.017 2°36.471 144.6 11.8 148 -999
2009-08-25 13:15:40 51°27.673 2°36.787 145.3 12 150 -999
2009-08-25 13:17:40 51°27.32 2°37.081 149.4 11.9 152 -999
2009-08-25 13:19:40 51°26.988 2°37.42 141.5 11.8 142 -999
2009-08-25 13:21:40 51°26.703 2°37.853 131.8 11.9 136 -999
2009-08-25 13:23:40 51°26.43 2°38.3 130.5 11.8 134 -999
2009-08-25 13:25:40 51°26.165 2°38.763 128.1 11.8 132 -999
2009-08-25 13:27:40 51°25.905 2°39.229 129.9 11.8 132 -999
2009-08-25 13:29:40 51°25.644 2°39.693 129.4 11.69 132 -999
2009-08-25 13:31:40 51°25.39 2°40.158 127.7 11.5 131 -999
2009-08-25 13:33:40 51°25.131 2°40.612 131.5 11.59 132 -999
2009-08-25 13:35:40 51°24.855 2°41.051 132.9 11.69 135 -999
2009-08-25 13:37:40 51°24.581 2°41.493 133.5 11.69 133 -999
2009-08-25 13:39:40 51°24.3 2°41.927 135 11.69 135 -999
2009-08-25 13:41:40 51°24.021 2°42.368 136.5 11.8 135 -999
2009-08-25 13:43:40 51°23.747 2°42.816 135.9 11.9 136 -999
2009-08-25 13:45:40 51°23.479 2°43.25 134.8 11.3 135 -999
2009-08-25 13:47:40 51°23.212 2°43.67 136.9 11.19 134 -999
2009-08-25 13:49:40 51°23.059 2°44.21 110.2 11.4 109 -999
2009-08-25 13:51:40 51°22.944 2°44.793 107.7 11.5 108 -999
2009-08-25 13:53:40 51°22.739 2°45.3 133.4 11.4 134 -999
2009-08-25 13:55:40 51°22.466 2°45.741 136.5 11.69 135 -999
2009-08-25 13:57:40 51°22.164 2°46.14 142.5 11.8 139 -999
2009-08-25 13:59:40 51°21.865 2°46.551 141.5 12 139 -999
2009-08-25 14:01:40 51°21.567 2°46.968 142 11.9 138 -999
2009-08-25 14:03:40 51°21.267 2°47.39 142.3 12 139 -999
2009-08-25 14:05:40 51°20.966 2°47.817 141.6 12.09 138 -999
2009-08-25 14:07:40 51°20.675 2°48.238 142.1 11.69 138 -999
2009-08-25 14:09:40 51°20.386 2°48.63 143.8 11.3 140 -999
2009-08-25 14:11:40 51°20.098 2°49.018 143.1 11.3 140 -999
2009-08-25 14:13:40 51°19.807 2°49.406 143.8 11.4 139 -999
2009-08-25 14:15:40 51°19.515 2°49.8 144.1 11.5 139 -999
2009-08-25 14:17:40 51°19.222 2°50.205 143.9 11.69 140 -999
2009-08-25 14:19:40 51°18.928 2°50.6 144.4 11.4 141 -999
2009-08-25 14:21:40 51°18.634 2°50.968 146.3 11.3 142 -999
2009-08-25 14:23:40 51°18.339 2°51.338 145.3 11.19 143 -999
2009-08-25 14:25:40 51°18.04 2°51.698 148.8 11.19 145 -999
2009-08-25 14:27:40 51°17.728 2°52.012 154 11.09 148 -999
2009-08-25 14:29:40 51°17.419 2°52.319 154.1 11 149 -999
2009-08-25 14:31:40 51°17.096 2°52.598 159.9 10.9 151 -999
2009-08-25 14:33:40 51°16.773 2°52.869 161.9 11 153 -999
2009-08-25 14:35:40 51°16.452 2°53.168 157.8 11.19 151 -999
2009-08-25 14:37:40 51°16.132 2°53.467 158.3 11.19 150 -999
2009-08-25 14:39:40 51°15.809 2°53.768 158.6 11.19 150 -999
2009-08-25 14:41:40 51°15.487 2°54.079 158.8 11.19 149 -999
2009-08-25 14:43:40 51°15.175 2°54.371 159.8 11.09 151 -999
2009-08-25 14:45:40 51°14.854 2°54.666 160.3 11 153 -999
2009-08-25 14:47:40 51°14.54 2°54.95 160.1 11 151 -999
2009-08-25 14:49:40 51°14.247 2°55.271 152.5 10.8 144 -999